sensor_id;sensor_type;location;lat;lon;timestamp;pressure;altitude;pressure_sealevel;temperature;humidity
14343;BME280;7255;53.596;9.960;2023-05-19T00:01:52;102579.06;;;7.00;nan
14343;BME280;7255;53.596;9.960;2023-05-19T00:04:19;102574.03;;;6.97;nan
14343;BME280;7255;53.596;9.960;2023-05-19T00:06:49;102581.12;;;6.88;nan
14343;BME280;7255;53.596;9.960;2023-05-19T00:09:19;102581.66;;;6.91;nan
14343;BME280;7255;53.596;9.960;2023-05-19T00:11:46;102588.06;;;6.99;nan
14343;BME280;7255;53.596;9.960;2023-05-19T00:14:14;102584.41;;;7.00;nan
14343;BME280;7255;53.596;9.960;2023-05-19T00:16:41;102582.31;;;6.85;nan
14343;BME280;7255;53.596;9.960;2023-05-19T00:19:07;102577.16;;;6.92;nan
14343;BME280;7255;53.596;9.960;2023-05-19T00:21:34;102575.50;;;6.91;nan
14343;BME280;7255;53.596;9.960;2023-05-19T00:24:02;102580.31;;;6.87;nan
14343;BME280;7255;53.596;9.960;2023-05-19T00:26:28;102576.03;;;6.94;nan
14343;BME280;7255;53.596;9.960;2023-05-19T00:28:55;102577.38;;;6.99;nan
14343;BME280;7255;53.596;9.960;2023-05-19T00:31:22;102578.00;;;6.92;nan
14343;BME280;7255;53.596;9.960;2023-05-19T00:33:49;102576.84;;;6.95;nan
14343;BME280;7255;53.596;9.960;2023-05-19T00:36:16;102568.38;;;7.00;nan
14343;BME280;7255;53.596;9.960;2023-05-19T00:38:42;102571.22;;;6.98;nan
14343;BME280;7255;53.596;9.960;2023-05-19T00:41:08;102574.84;;;6.97;nan
14343;BME280;7255;53.596;9.960;2023-05-19T00:43:35;102571.22;;;6.98;nan
14343;BME280;7255;53.596;9.960;2023-05-19T00:46:02;102565.94;;;6.88;nan
14343;BME280;7255;53.596;9.960;2023-05-19T00:48:30;102553.25;;;6.90;nan
14343;BME280;7255;53.596;9.960;2023-05-19T00:50:56;102556.31;;;6.96;nan
14343;BME280;7255;53.596;9.960;2023-05-19T00:53:28;102561.34;;;6.99;nan
14343;BME280;7255;53.596;9.960;2023-05-19T00:55:55;102558.59;;;6.90;nan
14343;BME280;7255;53.596;9.960;2023-05-19T00:58:23;102561.34;;;6.99;nan
14343;BME280;7255;53.596;9.960;2023-05-19T01:00:53;102559.34;;;7.01;nan
14343;BME280;7255;53.596;9.960;2023-05-19T01:03:20;102557.88;;;7.06;nan
14343;BME280;7255;53.596;9.960;2023-05-19T01:05:48;102567.12;;;7.12;nan
14343;BME280;7255;53.596;9.960;2023-05-19T01:08:18;102566.06;;;7.05;nan
14343;BME280;7255;53.596;9.960;2023-05-19T01:10:44;102563.22;;;7.06;nan
14343;BME280;7255;53.596;9.960;2023-05-19T01:13:11;102562.19;;;6.99;nan
14343;BME280;7255;53.596;9.960;2023-05-19T01:15:44;102570.03;;;7.01;nan
14343;BME280;7255;53.596;9.960;2023-05-19T01:18:24;102562.63;;;7.12;nan
14343;BME280;7255;53.596;9.960;2023-05-19T01:21:02;102570.78;;;7.11;nan
14343;BME280;7255;53.596;9.960;2023-05-19T01:23:41;102567.12;;;7.12;nan
14343;BME280;7255;53.596;9.960;2023-05-19T01:26:25;102569.09;;;7.10;nan
14343;BME280;7255;53.596;9.960;2023-05-19T01:29:20;102562.72;;;7.03;nan
14343;BME280;7255;53.596;9.960;2023-05-19T01:31:55;102568.06;;;7.03;nan
14343;BME280;7255;53.596;9.960;2023-05-19T01:34:25;102564.41;;;7.04;nan
14343;BME280;7255;53.596;9.960;2023-05-19T01:36:53;102560.50;;;6.98;nan
14343;BME280;7255;53.596;9.960;2023-05-19T01:39:20;102574.03;;;6.97;nan
14343;BME280;7255;53.596;9.960;2023-05-19T01:41:47;102563.34;;;6.97;nan
14343;BME280;7255;53.596;9.960;2023-05-19T01:44:14;102563.62;;;6.93;nan
14343;BME280;7255;53.596;9.960;2023-05-19T01:46:41;102567.09;;;6.86;nan
14343;BME280;7255;53.596;9.960;2023-05-19T01:49:09;102563.94;;;6.90;nan
14343;BME280;7255;53.596;9.960;2023-05-19T01:51:36;102569.63;;;6.87;nan
14343;BME280;7255;53.596;9.960;2023-05-19T01:54:02;102567.19;;;6.76;nan
14343;BME280;7255;53.596;9.960;2023-05-19T01:56:37;102566.34;;;6.75;nan
14343;BME280;7255;53.596;9.960;2023-05-19T01:59:15;102578.72;;;6.77;nan
14343;BME280;7255;53.596;9.960;2023-05-19T02:01:50;102581.78;;;6.82;nan
14343;BME280;7255;53.596;9.960;2023-05-19T02:04:28;102584.28;;;6.83;nan
14343;BME280;7255;53.596;9.960;2023-05-19T02:07:03;102580.16;;;6.71;nan
14343;BME280;7255;53.596;9.960;2023-05-19T02:09:37;102581.28;;;6.68;nan
14343;BME280;7255;53.596;9.960;2023-05-19T02:12:10;102575.13;;;6.68;nan
14343;BME280;7255;53.596;9.960;2023-05-19T02:14:39;102584.34;;;6.73;nan
14343;BME280;7255;53.596;9.960;2023-05-19T02:17:07;102579.63;;;6.67;nan
14343;BME280;7255;53.596;9.960;2023-05-19T02:19:37;102578.28;;;6.63;nan
14343;BME280;7255;53.596;9.960;2023-05-19T02:22:04;102566.72;;;6.63;nan
14343;BME280;7255;53.596;9.960;2023-05-19T02:24:30;102573.75;;;6.64;nan
14343;BME280;7255;53.596;9.960;2023-05-19T02:26:56;102562.44;;;6.70;nan
14343;BME280;7255;53.596;9.960;2023-05-19T02:29:23;102570.59;;;6.68;nan
14343;BME280;7255;53.596;9.960;2023-05-19T02:31:50;102565.28;;;6.68;nan
14343;BME280;7255;53.596;9.960;2023-05-19T02:34:16;102560.47;;;6.72;nan
14343;BME280;7255;53.596;9.960;2023-05-19T02:36:44;102558.81;;;6.71;nan
14343;BME280;7255;53.596;9.960;2023-05-19T02:39:14;102561.19;;;6.56;nan
14343;BME280;7255;53.596;9.960;2023-05-19T02:41:40;102562.31;;;6.53;nan
14343;BME280;7255;53.596;9.960;2023-05-19T02:44:07;102554.69;;;6.59;nan
14343;BME280;7255;53.596;9.960;2023-05-19T02:46:33;102559.63;;;6.71;nan
14343;BME280;7255;53.596;9.960;2023-05-19T02:48:59;102611.06;;;6.73;nan
14343;BME280;7255;53.596;9.960;2023-05-19T02:51:26;102568.56;;;6.80;nan
14343;BME280;7255;53.596;9.960;2023-05-19T02:53:53;102565.19;;;6.78;nan
14343;BME280;7255;53.596;9.960;2023-05-19T02:56:19;102564.88;;;6.81;nan
14343;BME280;7255;53.596;9.960;2023-05-19T02:58:46;102559.53;;;6.81;nan
14343;BME280;7255;53.596;9.960;2023-05-19T03:01:12;102560.59;;;6.88;nan
14343;BME280;7255;53.596;9.960;2023-05-19T03:03:39;102562.50;;;6.96;nan
14343;BME280;7255;53.596;9.960;2023-05-19T03:06:05;102558.19;;;7.03;nan
14343;BME280;7255;53.596;9.960;2023-05-19T03:08:32;102555.16;;;6.98;nan
14343;BME280;7255;53.596;9.960;2023-05-19T03:11:00;102553.69;;;7.04;nan
14343;BME280;7255;53.596;9.960;2023-05-19T03:13:26;102548.03;;;7.07;nan
14343;BME280;7255;53.596;9.960;2023-05-19T03:15:53;102555.81;;;7.18;nan
14343;BME280;7255;53.596;9.960;2023-05-19T03:18:21;102549.94;;;7.15;nan
14343;BME280;7255;53.596;9.960;2023-05-19T03:20:48;102552.44;;;7.16;nan
14343;BME280;7255;53.596;9.960;2023-05-19T03:23:15;102554.41;;;7.14;nan
14343;BME280;7255;53.596;9.960;2023-05-19T03:25:41;102555.81;;;7.18;nan
14343;BME280;7255;53.596;9.960;2023-05-19T03:28:09;102553.91;;;7.10;nan
14343;BME280;7255;53.596;9.960;2023-05-19T03:30:35;102543.19;;;7.10;nan
14343;BME280;7255;53.596;9.960;2023-05-19T03:33:02;102548.78;;;7.17;nan
14343;BME280;7255;53.596;9.960;2023-05-19T03:35:29;102551.50;;;7.25;nan
14343;BME280;7255;53.596;9.960;2023-05-19T03:37:55;102544.34;;;7.34;nan
14343;BME280;7255;53.596;9.960;2023-05-19T03:40:22;102551.69;;;7.32;nan
14343;BME280;7255;53.596;9.960;2023-05-19T03:42:48;102562.78;;;7.45;nan
14343;BME280;7255;53.596;9.960;2023-05-19T03:45:16;102556.59;;;7.45;nan
14343;BME280;7255;53.596;9.960;2023-05-19T03:47:42;102558.31;;;7.46;nan
14343;BME280;7255;53.596;9.960;2023-05-19T03:50:10;102565.84;;;7.50;nan
14343;BME280;7255;53.596;9.960;2023-05-19T03:52:36;102563.22;;;7.59;nan
14343;BME280;7255;53.596;9.960;2023-05-19T03:55:04;102562.78;;;7.71;nan
14343;BME280;7255;53.596;9.960;2023-05-19T03:57:31;102560.97;;;7.80;nan
14343;BME280;7255;53.596;9.960;2023-05-19T03:59:57;102567.25;;;7.71;nan
14343;BME280;7255;53.596;9.960;2023-05-19T04:02:25;102570.19;;;7.86;nan
14343;BME280;7255;53.596;9.960;2023-05-19T04:04:51;102574.75;;;8.02;nan
14343;BME280;7255;53.596;9.960;2023-05-19T04:07:18;102572.72;;;8.04;nan
14343;BME280;7255;53.596;9.960;2023-05-19T04:09:44;102581.47;;;8.06;nan
14343;BME280;7255;53.596;9.960;2023-05-19T04:12:12;102581.31;;;8.16;nan
14343;BME280;7255;53.596;9.960;2023-05-19T04:14:38;102583.31;;;8.14;nan
14343;BME280;7255;53.596;9.960;2023-05-19T04:17:05;102588.72;;;8.30;nan
14343;BME280;7255;53.596;9.960;2023-05-19T04:19:32;102593.41;;;8.36;nan
14343;BME280;7255;53.596;9.960;2023-05-19T04:21:59;102589.09;;;8.43;nan
14343;BME280;7255;53.596;9.960;2023-05-19T04:24:25;102596.66;;;8.48;nan
14343;BME280;7255;53.596;9.960;2023-05-19T04:26:51;102599.50;;;8.46;nan
14343;BME280;7255;53.596;9.960;2023-05-19T04:29:18;102590.31;;;8.57;nan
14343;BME280;7255;53.596;9.960;2023-05-19T04:31:44;102593.31;;;8.62;nan
14343;BME280;7255;53.596;9.960;2023-05-19T04:34:11;102601.53;;;8.77;nan
14343;BME280;7255;53.596;9.960;2023-05-19T04:36:38;102588.44;;;8.66;nan
14343;BME280;7255;53.596;9.960;2023-05-19T04:39:05;102595.81;;;8.64;nan
14343;BME280;7255;53.596;9.960;2023-05-19T04:41:34;102592.47;;;8.62;nan
14343;BME280;7255;53.596;9.960;2023-05-19T04:44:00;102585.44;;;8.77;nan
14343;BME280;7255;53.596;9.960;2023-05-19T04:46:26;102599.53;;;8.96;nan
14343;BME280;7255;53.596;9.960;2023-05-19T04:48:54;102600.19;;;9.06;nan
14343;BME280;7255;53.596;9.960;2023-05-19T04:51:21;102607.38;;;9.14;nan
14343;BME280;7255;53.596;9.960;2023-05-19T04:53:53;102601.50;;;9.27;nan
14343;BME280;7255;53.596;9.960;2023-05-19T04:56:19;102605.84;;;9.36;nan
14343;BME280;7255;53.596;9.960;2023-05-19T04:58:46;102601.78;;;9.56;nan
14343;BME280;7255;53.596;9.960;2023-05-19T05:01:12;102607.94;;;9.73;nan
14343;BME280;7255;53.596;9.960;2023-05-19T05:03:39;102606.72;;;9.76;nan
14343;BME280;7255;53.596;9.960;2023-05-19T05:06:06;102612.03;;;9.92;nan
14343;BME280;7255;53.596;9.960;2023-05-19T05:08:33;102618.81;;;9.80;nan
14343;BME280;7255;53.596;9.960;2023-05-19T05:11:01;102615.59;;;9.85;nan
14343;BME280;7255;53.596;9.960;2023-05-19T05:13:28;102619.09;;;9.93;nan
14343;BME280;7255;53.596;9.960;2023-05-19T05:15:55;102618.06;;;10.02;nan
14343;BME280;7255;53.596;9.960;2023-05-19T05:18:22;102614.47;;;10.10;nan
14343;BME280;7255;53.596;9.960;2023-05-19T05:20:49;102611.97;;;10.09;nan
14343;BME280;7255;53.596;9.960;2023-05-19T05:23:15;102624.03;;;10.13;nan
14343;BME280;7255;53.596;9.960;2023-05-19T05:25:43;102620.91;;;10.01;nan
14343;BME280;7255;53.596;9.960;2023-05-19T05:28:11;102611.84;;;10.02;nan
14343;BME280;7255;53.596;9.960;2023-05-19T05:30:37;102618.47;;;10.23;nan
14343;BME280;7255;53.596;9.960;2023-05-19T05:33:05;102621.97;;;10.31;nan
14343;BME280;7255;53.596;9.960;2023-05-19T05:35:31;102626.87;;;10.51;nan
14343;BME280;7255;53.596;9.960;2023-05-19T05:37:58;102626.28;;;10.87;nan
14343;BME280;7255;53.596;9.960;2023-05-19T05:40:25;102626.16;;;10.80;nan
14343;BME280;7255;53.596;9.960;2023-05-19T05:42:52;102620.69;;;10.73;nan
14343;BME280;7255;53.596;9.960;2023-05-19T05:45:21;102618.62;;;10.98;nan
14343;BME280;7255;53.596;9.960;2023-05-19T05:47:47;102625.06;;;11.12;nan
14343;BME280;7255;53.596;9.960;2023-05-19T05:50:15;102640.84;;;11.15;nan
14343;BME280;7255;53.596;9.960;2023-05-19T05:52:45;102632.91;;;11.37;nan
14343;BME280;7255;53.596;9.960;2023-05-19T05:55:12;102645.47;;;11.45;nan
14343;BME280;7255;53.596;9.960;2023-05-19T05:57:39;102636.25;;;11.39;nan
14343;BME280;7255;53.596;9.960;2023-05-19T06:00:07;102637.56;;;11.43;nan
14343;BME280;7255;53.596;9.960;2023-05-19T06:02:41;102648.88;;;11.53;nan
14343;BME280;7255;53.596;9.960;2023-05-19T06:05:08;102641.28;;;11.72;nan
14343;BME280;7255;53.596;9.960;2023-05-19T06:07:36;102639.97;;;11.68;nan
14343;BME280;7255;53.596;9.960;2023-05-19T06:10:04;102637.22;;;12.06;nan
14343;BME280;7255;53.596;9.960;2023-05-19T06:12:30;102640.56;;;12.08;nan
14343;BME280;7255;53.596;9.960;2023-05-19T06:14:56;102651.78;;;12.11;nan
14343;BME280;7255;53.596;9.960;2023-05-19T06:17:23;102645.97;;;12.44;nan
14343;BME280;7255;53.596;9.960;2023-05-19T06:19:50;102656.81;;;12.51;nan
14343;BME280;7255;53.596;9.960;2023-05-19T06:22:16;102658.09;;;12.55;nan
14343;BME280;7255;53.596;9.960;2023-05-19T06:24:43;102646.38;;;12.84;nan
14343;BME280;7255;53.596;9.960;2023-05-19T06:27:09;102653.81;;;12.82;nan
14343;BME280;7255;53.596;9.960;2023-05-19T06:29:35;102655.56;;;12.90;nan
14343;BME280;7255;53.596;9.960;2023-05-19T06:32:02;102650.37;;;13.17;nan
14343;BME280;7255;53.596;9.960;2023-05-19T06:34:28;102659.63;;;13.29;nan
14343;BME280;7255;53.596;9.960;2023-05-19T06:36:56;102658.25;;;13.68;nan
14343;BME280;7255;53.596;9.960;2023-05-19T06:39:22;102656.78;;;13.65;nan
14343;BME280;7255;53.596;9.960;2023-05-19T06:41:49;102661.03;;;13.46;nan
14343;BME280;7255;53.596;9.960;2023-05-19T06:44:15;102653.44;;;13.35;nan
14343;BME280;7255;53.596;9.960;2023-05-19T06:46:41;102662.81;;;13.61;nan
14343;BME280;7255;53.596;9.960;2023-05-19T06:49:08;102662.19;;;14.00;nan
14343;BME280;7255;53.596;9.960;2023-05-19T06:51:34;102669.16;;;13.88;nan
14343;BME280;7255;53.596;9.960;2023-05-19T06:54:02;102666.75;;;14.00;nan
14343;BME280;7255;53.596;9.960;2023-05-19T06:56:28;102657.97;;;13.91;nan
14343;BME280;7255;53.596;9.960;2023-05-19T06:58:55;102657.97;;;13.91;nan
14343;BME280;7255;53.596;9.960;2023-05-19T07:01:21;102660.59;;;14.19;nan
14343;BME280;7255;53.596;9.960;2023-05-19T07:03:47;102663.72;;;14.16;nan
14343;BME280;7255;53.596;9.960;2023-05-19T07:06:14;102663.16;;;14.34;nan
14343;BME280;7255;53.596;9.960;2023-05-19T07:08:40;102679.88;;;14.58;nan
14343;BME280;7255;53.596;9.960;2023-05-19T07:11:08;102663.16;;;14.41;nan
14343;BME280;7255;53.596;9.960;2023-05-19T07:13:34;102671.03;;;14.29;nan
14343;BME280;7255;53.596;9.960;2023-05-19T07:16:00;102665.19;;;14.25;nan
14343;BME280;7255;53.596;9.960;2023-05-19T07:18:26;102673.47;;;14.17;nan
14343;BME280;7255;53.596;9.960;2023-05-19T07:20:55;102666.75;;;14.00;nan
14343;BME280;7255;53.596;9.960;2023-05-19T07:23:22;102665.06;;;13.92;nan
14343;BME280;7255;53.596;9.960;2023-05-19T07:25:52;102667.72;;;14.34;nan
14343;BME280;7255;53.596;9.960;2023-05-19T07:28:20;102661.09;;;14.36;nan
14343;BME280;7255;53.596;9.960;2023-05-19T07:30:46;102674.03;;;14.54;nan
14343;BME280;7255;53.596;9.960;2023-05-19T07:33:14;102663.69;;;14.65;nan
14343;BME280;7255;53.596;9.960;2023-05-19T07:35:40;102663.97;;;14.35;nan
14343;BME280;7255;53.596;9.960;2023-05-19T07:38:07;102670.34;;;14.69;nan
14343;BME280;7255;53.596;9.960;2023-05-19T07:40:33;102673.28;;;14.94;nan
14343;BME280;7255;53.596;9.960;2023-05-19T07:42:59;102676.63;;;15.29;nan
14343;BME280;7255;53.596;9.960;2023-05-19T07:45:27;102677.06;;;15.46;nan
14343;BME280;7255;53.596;9.960;2023-05-19T07:47:53;102668.69;;;15.61;nan
14343;BME280;7255;53.596;9.960;2023-05-19T07:50:20;102684.09;;;15.81;nan
14343;BME280;7255;53.596;9.960;2023-05-19T07:52:46;102679.09;;;15.64;nan
14343;BME280;7255;53.596;9.960;2023-05-19T07:55:12;102683.25;;;15.87;nan
14343;BME280;7255;53.596;9.960;2023-05-19T07:57:39;102682.44;;;15.86;nan
14343;BME280;7255;53.596;9.960;2023-05-19T08:00:07;102678.19;;;16.04;nan
14343;BME280;7255;53.596;9.960;2023-05-19T08:02:35;102679.44;;;16.08;nan
14343;BME280;7255;53.596;9.960;2023-05-19T08:05:02;102668.09;;;16.31;nan
14343;BME280;7255;53.596;9.960;2023-05-19T08:07:28;102674.00;;;16.08;nan
14343;BME280;7255;53.596;9.960;2023-05-19T08:09:55;102673.44;;;16.44;nan
14343;BME280;7255;53.596;9.960;2023-05-19T08:12:21;102665.38;;;16.69;nan
14343;BME280;7255;53.596;9.960;2023-05-19T08:14:47;102664.59;;;16.55;nan
14343;BME280;7255;53.596;9.960;2023-05-19T08:17:14;102667.59;;;16.47;nan
14343;BME280;7255;53.596;9.960;2023-05-19T08:19:41;102666.97;;;16.77;nan
14343;BME280;7255;53.596;9.960;2023-05-19T08:22:08;102672.34;;;16.90;nan
14343;BME280;7255;53.596;9.960;2023-05-19T08:24:34;102665.94;;;17.10;nan
14343;BME280;7255;53.596;9.960;2023-05-19T08:27:01;102673.75;;;17.25;nan
14343;BME280;7255;53.596;9.960;2023-05-19T08:29:28;102667.25;;;17.51;nan
14343;BME280;7255;53.596;9.960;2023-05-19T08:31:56;102657.22;;;17.01;nan
14343;BME280;7255;53.596;9.960;2023-05-19T08:34:23;102657.22;;;17.26;nan
14343;BME280;7255;53.596;9.960;2023-05-19T08:36:52;102655.44;;;17.13;nan
14343;BME280;7255;53.596;9.960;2023-05-19T08:39:21;102660.84;;;17.20;nan
14343;BME280;7255;53.596;9.960;2023-05-19T08:41:51;102657.28;;;16.95;nan
14343;BME280;7255;53.596;9.960;2023-05-19T08:44:17;102665.75;;;16.73;nan
14343;BME280;7255;53.596;9.960;2023-05-19T08:46:44;102642.25;;;16.92;nan
14343;BME280;7255;53.596;9.960;2023-05-19T08:49:12;102644.81;;;17.12;nan
14343;BME280;7255;53.596;9.960;2023-05-19T08:51:45;102642.88;;;17.19;nan
14343;BME280;7255;53.596;9.960;2023-05-19T08:54:15;102638.53;;;17.37;nan
14343;BME280;7255;53.596;9.960;2023-05-19T08:56:46;102646.53;;;17.31;nan
14343;BME280;7255;53.596;9.960;2023-05-19T08:59:13;102643.06;;;17.43;nan
14343;BME280;7255;53.596;9.960;2023-05-19T09:01:41;102628.94;;;17.34;nan
14343;BME280;7255;53.596;9.960;2023-05-19T09:04:08;102635.78;;;17.18;nan
14343;BME280;7255;53.596;9.960;2023-05-19T09:06:35;102632.56;;;17.03;nan
14343;BME280;7255;53.596;9.960;2023-05-19T09:09:05;102621.44;;;16.79;nan
14343;BME280;7255;53.596;9.960;2023-05-19T09:11:32;102627.91;;;17.10;nan
14343;BME280;7255;53.596;9.960;2023-05-19T09:13:59;102625.66;;;17.25;nan
14343;BME280;7255;53.596;9.960;2023-05-19T09:16:26;102630.09;;;17.45;nan
14343;BME280;7255;53.596;9.960;2023-05-19T09:18:53;102630.09;;;17.45;nan
14343;BME280;7255;53.596;9.960;2023-05-19T09:21:26;102628.88;;;17.59;nan
14343;BME280;7255;53.596;9.960;2023-05-19T09:23:55;102632.12;;;17.49;nan
14343;BME280;7255;53.596;9.960;2023-05-19T09:26:21;102633.41;;;17.47;nan
14343;BME280;7255;53.596;9.960;2023-05-19T09:28:49;102629.66;;;17.48;nan
14343;BME280;7255;53.596;9.960;2023-05-19T09:31:15;102631.28;;;17.49;nan
14343;BME280;7255;53.596;9.960;2023-05-19T09:33:42;102621.53;;;17.23;nan
14343;BME280;7255;53.596;9.960;2023-05-19T09:36:09;102629.31;;;17.38;nan
14343;BME280;7255;53.596;9.960;2023-05-19T09:38:37;102630.53;;;17.42;nan
14343;BME280;7255;53.596;9.960;2023-05-19T09:41:05;102622.41;;;17.60;nan
14343;BME280;7255;53.596;9.960;2023-05-19T09:43:32;102620.03;;;17.45;nan
14343;BME280;7255;53.596;9.960;2023-05-19T09:46:03;102622.16;;;17.43;nan
14343;BME280;7255;53.596;9.960;2023-05-19T09:48:29;102619.81;;;17.65;nan
14343;BME280;7255;53.596;9.960;2023-05-19T09:50:56;102617.56;;;17.81;nan
14343;BME280;7255;53.596;9.960;2023-05-19T09:53:23;102620.31;;;17.99;nan
14343;BME280;7255;53.596;9.960;2023-05-19T09:55:50;102613.75;;;17.88;nan
14343;BME280;7255;53.596;9.960;2023-05-19T09:58:20;102608.06;;;18.08;nan
14343;BME280;7255;53.596;9.960;2023-05-19T10:00:49;102608.44;;;17.75;nan
14343;BME280;7255;53.596;9.960;2023-05-19T10:03:18;102607.00;;;17.91;nan
14343;BME280;7255;53.596;9.960;2023-05-19T10:05:45;102613.19;;;17.98;nan
14343;BME280;7255;53.596;9.960;2023-05-19T10:08:13;102611.91;;;18.01;nan
14343;BME280;7255;53.596;9.960;2023-05-19T10:10:42;102595.13;;;18.04;nan
14343;BME280;7255;53.596;9.960;2023-05-19T10:13:11;102605.47;;;18.14;nan
14343;BME280;7255;53.596;9.960;2023-05-19T10:15:39;102590.97;;;18.01;nan
14343;BME280;7255;53.596;9.960;2023-05-19T10:18:08;102598.00;;;18.09;nan
14343;BME280;7255;53.596;9.960;2023-05-19T10:20:36;102590.97;;;18.01;nan
14343;BME280;7255;53.596;9.960;2023-05-19T10:23:02;102594.75;;;18.00;nan
14343;BME280;7255;53.596;9.960;2023-05-19T10:25:30;102594.31;;;18.03;nan
14343;BME280;7255;53.596;9.960;2023-05-19T10:28:02;102593.63;;;18.08;nan
14343;BME280;7255;53.596;9.960;2023-05-19T10:30:33;102588.66;;;18.17;nan
14343;BME280;7255;53.596;9.960;2023-05-19T10:33:00;102584.91;;;18.18;nan
14343;BME280;7255;53.596;9.960;2023-05-19T10:35:57;102586.09;;;18.22;nan
14343;BME280;7255;53.596;9.960;2023-05-19T10:38:29;102573.66;;;18.14;nan
14343;BME280;7255;53.596;9.960;2023-05-19T10:41:04;102579.25;;;18.31;nan
14343;BME280;7255;53.596;9.960;2023-05-19T10:43:43;102580.38;;;18.42;nan
14343;BME280;7255;53.596;9.960;2023-05-19T10:46:12;102579.91;;;18.45;nan
14343;BME280;7255;53.596;9.960;2023-05-19T10:48:43;102573.28;;;18.11;nan
14343;BME280;7255;53.596;9.960;2023-05-19T10:51:11;102579.69;;;18.46;nan
14343;BME280;7255;53.596;9.960;2023-05-19T10:53:40;102584.22;;;18.76;nan
14343;BME280;7255;53.596;9.960;2023-05-19T10:56:10;102585.63;;;18.79;nan
14343;BME280;7255;53.596;9.960;2023-05-19T10:58:52;102577.84;;;18.71;nan
14343;BME280;7255;53.596;9.960;2023-05-19T11:01:19;102578.66;;;18.71;nan
14343;BME280;7255;53.596;9.960;2023-05-19T11:03:49;102564.03;;;18.96;nan
14343;BME280;7255;53.596;9.960;2023-05-19T11:06:26;102571.12;;;19.20;nan
14343;BME280;7255;53.596;9.960;2023-05-19T11:08:54;102568.03;;;19.29;nan
14343;BME280;7255;53.596;9.960;2023-05-19T11:11:21;102562.72;;;19.22;nan
14343;BME280;7255;53.596;9.960;2023-05-19T11:13:49;102573.94;;;19.49;nan
14343;BME280;7255;53.596;9.960;2023-05-19T11:16:18;102561.22;;;19.78;nan
14343;BME280;7255;53.596;9.960;2023-05-19T11:18:48;102564.94;;;19.37;nan
14343;BME280;7255;53.596;9.960;2023-05-19T11:21:15;102567.56;;;19.32;nan
14343;BME280;7255;53.596;9.960;2023-05-19T11:23:45;102558.66;;;19.24;nan
14343;BME280;7255;53.596;9.960;2023-05-19T11:26:12;102556.38;;;19.45;nan
14343;BME280;7255;53.596;9.960;2023-05-19T11:28:38;102557.34;;;19.51;nan
14343;BME280;7255;53.596;9.960;2023-05-19T11:31:05;102559.37;;;19.43;nan
14343;BME280;7255;53.596;9.960;2023-05-19T11:33:34;102548.87;;;19.00;nan
14343;BME280;7255;53.596;9.960;2023-05-19T11:36:01;102542.91;;;19.27;nan
14343;BME280;7255;53.596;9.960;2023-05-19T11:38:28;102561.41;;;19.24;nan
14343;BME280;7255;53.596;9.960;2023-05-19T11:40:56;102548.66;;;19.54;nan
14343;BME280;7255;53.596;9.960;2023-05-19T11:43:22;102552.31;;;19.59;nan
14343;BME280;7255;53.596;9.960;2023-05-19T11:45:50;102543.97;;;19.90;nan
14343;BME280;7255;53.596;9.960;2023-05-19T11:48:19;102555.25;;;19.81;nan
14343;BME280;7255;53.596;9.960;2023-05-19T11:50:46;102551.97;;;19.96;nan
14343;BME280;7255;53.596;9.960;2023-05-19T11:53:13;102548.87;;;19.76;nan
14343;BME280;7255;53.596;9.960;2023-05-19T11:55:44;102545.09;;;20.06;nan
14343;BME280;7255;53.596;9.960;2023-05-19T11:58:12;102547.72;;;20.00;nan
14343;BME280;7255;53.596;9.960;2023-05-19T12:00:39;102545.41;;;19.69;nan
14343;BME280;7255;53.596;9.960;2023-05-19T12:03:07;102536.28;;;19.22;nan
14343;BME280;7255;53.596;9.960;2023-05-19T12:05:36;102543.91;;;19.61;nan
14343;BME280;7255;53.596;9.960;2023-05-19T12:08:03;102554.03;;;19.37;nan
14343;BME280;7255;53.596;9.960;2023-05-19T12:10:30;102544.69;;;19.85;nan
14343;BME280;7255;53.596;9.960;2023-05-19T12:12:58;102545.25;;;19.87;nan
14343;BME280;7255;53.596;9.960;2023-05-19T12:15:26;102539.91;;;19.92;nan
14343;BME280;7255;53.596;9.960;2023-05-19T12:17:56;102544.13;;;20.00;nan
14343;BME280;7255;53.596;9.960;2023-05-19T12:20:23;102548.72;;;19.71;nan
14343;BME280;7255;53.596;9.960;2023-05-19T12:22:49;102527.97;;;19.81;nan
14343;BME280;7255;53.596;9.960;2023-05-19T12:25:16;102531.09;;;19.73;nan
14343;BME280;7255;53.596;9.960;2023-05-19T12:27:43;102524.53;;;19.86;nan
14343;BME280;7255;53.596;9.960;2023-05-19T12:30:12;102518.63;;;20.23;nan
14343;BME280;7255;53.596;9.960;2023-05-19T12:32:39;102515.19;;;20.28;nan
14343;BME280;7255;53.596;9.960;2023-05-19T12:35:06;102519.50;;;20.74;nan
14343;BME280;7255;53.596;9.960;2023-05-19T12:37:32;102527.53;;;21.20;nan
14343;BME280;7255;53.596;9.960;2023-05-19T12:40:00;102523.94;;;21.59;nan
14343;BME280;7255;53.596;9.960;2023-05-19T12:42:29;102510.03;;;21.87;nan
14343;BME280;7255;53.596;9.960;2023-05-19T12:44:57;102513.19;;;21.52;nan
14343;BME280;7255;53.596;9.960;2023-05-19T12:47:29;102516.69;;;20.86;nan
14343;BME280;7255;53.596;9.960;2023-05-19T12:50:02;102509.91;;;20.72;nan
14343;BME280;7255;53.596;9.960;2023-05-19T12:52:30;102500.13;;;20.76;nan
14343;BME280;7255;53.596;9.960;2023-05-19T12:54:57;102506.38;;;21.10;nan
14343;BME280;7255;53.596;9.960;2023-05-19T12:57:24;102484.13;;;21.24;nan
14343;BME280;7255;53.596;9.960;2023-05-19T12:59:50;102512.59;;;21.28;nan
14343;BME280;7255;53.596;9.960;2023-05-19T13:02:17;102517.69;;;21.41;nan
14343;BME280;7255;53.596;9.960;2023-05-19T13:04:44;102513.88;;;21.42;nan
14343;BME280;7255;53.596;9.960;2023-05-19T13:07:13;102504.59;;;21.43;nan
14343;BME280;7255;53.596;9.960;2023-05-19T13:09:40;102508.13;;;21.00;nan
14343;BME280;7255;53.596;9.960;2023-05-19T13:12:06;102503.12;;;20.74;nan
14343;BME280;7255;53.596;9.960;2023-05-19T13:14:33;102498.31;;;20.82;nan
14343;BME280;7255;53.596;9.960;2023-05-19T13:16:59;102508.97;;;21.22;nan
14343;BME280;7255;53.596;9.960;2023-05-19T13:19:25;102500.31;;;21.08;nan
14343;BME280;7255;53.596;9.960;2023-05-19T13:21:51;102503.81;;;21.70;nan
14343;BME280;7255;53.596;9.960;2023-05-19T13:24:19;102495.50;;;21.87;nan
14343;BME280;7255;53.596;9.960;2023-05-19T13:26:46;102496.59;;;21.59;nan
14343;BME280;7255;53.596;9.960;2023-05-19T13:29:12;102503.12;;;22.12;nan
14343;BME280;7255;53.596;9.960;2023-05-19T13:31:38;102509.28;;;22.24;nan